createdAt,value
2022-09-26T00:00:23.234Z,12.29
2022-09-26T00:03:25.847Z,12.21
2022-09-26T00:06:29.817Z,12.13
2022-09-26T00:09:32.463Z,12.12
2022-09-26T00:12:34.982Z,12.08
2022-09-26T00:15:37.439Z,11.99
2022-09-26T00:18:40.055Z,11.95
2022-09-26T00:21:43.870Z,11.87
2022-09-26T00:24:46.342Z,11.79
2022-09-26T00:27:48.812Z,11.75
2022-09-26T00:30:51.576Z,11.70
2022-09-26T00:33:54.200Z,11.63
2022-09-26T00:36:58.308Z,11.49
2022-09-26T00:40:00.831Z,11.38
2022-09-26T00:43:03.317Z,11.36
2022-09-26T00:46:18.779Z,11.35
2022-09-26T00:49:26.335Z,11.32
2022-09-26T00:52:33.857Z,11.28
2022-09-26T00:55:39.599Z,11.19
2022-09-26T00:58:46.123Z,11.20
2022-09-26T01:01:49.119Z,11.09
2022-09-26T01:04:51.913Z,11.13
2022-09-26T01:07:57.243Z,11.04
2022-09-26T01:11:00.752Z,10.99
2022-09-26T01:14:04.561Z,10.86
2022-09-26T01:17:07.433Z,10.80
2022-09-26T01:20:33.418Z,10.66
2022-09-26T01:24:06.280Z,10.54
2022-09-26T01:27:30.814Z,10.50
2022-09-26T01:30:42.766Z,10.48
2022-09-26T01:33:51.287Z,10.45
2022-09-26T01:37:05.331Z,10.43
2022-09-26T01:40:12.056Z,10.38
2022-09-26T01:43:21.487Z,10.26
2022-09-26T01:46:32.706Z,10.21
2022-09-26T01:49:44.249Z,10.22
2022-09-26T01:52:52.145Z,10.24
2022-09-26T01:56:00.343Z,10.23
2022-09-26T01:59:09.129Z,10.13
2022-09-26T02:02:20.118Z,10.10
2022-09-26T02:05:28.690Z,9.95
2022-09-26T02:08:37.005Z,9.87
2022-09-26T02:11:42.399Z,9.74
2022-09-26T02:14:46.872Z,9.60
2022-09-26T02:17:56.348Z,9.64
2022-09-26T02:21:10.787Z,9.66
2022-09-26T02:24:13.748Z,9.60
2022-09-26T02:27:16.354Z,9.58
2022-09-26T02:30:21.838Z,9.55
2022-09-26T02:33:26.137Z,9.56
2022-09-26T02:36:34.523Z,9.49
2022-09-26T02:39:37.690Z,9.51
2022-09-26T02:42:50.364Z,9.43
2022-09-26T02:46:04.290Z,9.40
2022-09-26T02:49:26.099Z,9.35
2022-09-26T02:52:43.494Z,9.32
2022-09-26T02:55:52.703Z,9.23
2022-09-26T02:59:02.375Z,9.08
2022-09-26T03:02:13.460Z,9.05
2022-09-26T03:05:21.003Z,9.02
2022-09-26T03:08:27.451Z,9.04
2022-09-26T03:11:31.290Z,9.02
2022-09-26T03:14:35.722Z,9.02
2022-09-26T03:17:42.571Z,9.09
2022-09-26T03:20:46.799Z,9.14
2022-09-26T03:23:49.519Z,9.12
2022-09-26T03:26:52.863Z,9.01
2022-09-26T03:29:55.356Z,8.94
2022-09-26T03:32:57.835Z,8.99
2022-09-26T03:36:05.618Z,8.93
2022-09-26T03:39:08.181Z,8.90
2022-09-26T03:42:10.727Z,8.88
2022-09-26T03:45:13.152Z,8.85
2022-09-26T03:48:16.671Z,8.85
2022-09-26T03:51:21.043Z,8.80
2022-09-26T03:54:23.894Z,8.77
2022-09-26T03:57:26.336Z,8.70
2022-09-26T04:00:29.206Z,8.60
2022-09-26T04:03:34.929Z,8.55
2022-09-26T04:06:39.239Z,8.58
2022-09-26T04:09:42.298Z,8.50
2022-09-26T04:12:45.566Z,8.42
2022-09-26T04:15:55.843Z,8.37
2022-09-26T04:18:58.837Z,8.38
2022-09-26T04:22:02.883Z,8.46
2022-09-26T04:25:05.999Z,8.47
2022-09-26T04:28:09.265Z,8.60
2022-09-26T04:31:12.702Z,8.60
2022-09-26T04:34:15.919Z,8.58
2022-09-26T04:37:21.023Z,8.59
2022-09-26T04:40:23.599Z,8.65
2022-09-26T04:43:26.223Z,8.72
2022-09-26T04:46:31.203Z,8.75
2022-09-26T04:49:33.847Z,8.76
2022-09-26T04:52:37.643Z,8.85
2022-09-26T04:55:44.683Z,8.83
2022-09-26T04:58:47.726Z,8.80
2022-09-26T05:01:50.247Z,8.82
2022-09-26T05:04:53.462Z,8.86
2022-09-26T05:07:57.581Z,8.88
2022-09-26T05:11:02.149Z,8.92
2022-09-26T05:14:04.659Z,8.97
2022-09-26T05:17:07.138Z,9.02
2022-09-26T05:20:10.337Z,9.06
2022-09-26T05:23:14.130Z,9.15
2022-09-26T05:26:20.059Z,9.19
2022-09-26T05:29:22.651Z,9.28
2022-09-26T05:32:25.379Z,9.35
2022-09-26T05:35:28.273Z,9.39
2022-09-26T05:38:32.180Z,9.51
2022-09-26T05:41:33.857Z,9.58
2022-09-26T05:44:36.397Z,9.65
2022-09-26T05:47:39.375Z,9.91
2022-09-26T05:50:43.713Z,10.09
2022-09-26T05:53:48.970Z,10.28
2022-09-26T05:56:51.394Z,10.26
2022-09-26T05:59:53.832Z,10.30
2022-09-26T06:02:57.329Z,10.39
2022-09-26T06:06:02.658Z,11.16
2022-09-26T06:09:07.419Z,11.75
2022-09-26T06:12:09.968Z,12.23
2022-09-26T06:15:12.465Z,12.22
2022-09-26T06:18:14.902Z,12.16
2022-09-26T06:21:19.075Z,12.07
2022-09-26T06:24:22.957Z,11.80
2022-09-26T06:27:25.410Z,11.98
2022-09-26T06:30:28.172Z,12.29
2022-09-26T06:33:33.409Z,12.76
2022-09-26T06:36:36.445Z,13.02
2022-09-26T06:39:40.240Z,12.97
2022-09-26T06:42:43.439Z,12.74
2022-09-26T06:45:45.975Z,12.58
2022-09-26T06:48:48.593Z,12.39
2022-09-26T06:51:51.031Z,12.30
2022-09-26T06:54:56.786Z,12.42
2022-09-26T06:57:59.830Z,12.48
2022-09-26T07:01:02.927Z,12.85
2022-09-26T07:04:05.748Z,13.07
2022-09-26T07:07:08.200Z,13.27
2022-09-26T07:10:12.690Z,13.95
2022-09-26T07:13:18.211Z,14.13
2022-09-26T07:16:20.741Z,14.29
2022-09-26T07:19:23.238Z,14.37
2022-09-26T07:22:26.968Z,14.66
2022-09-26T07:25:31.982Z,14.61
2022-09-26T07:28:34.793Z,14.69
2022-09-26T07:31:37.982Z,14.54
2022-09-26T07:34:41.765Z,14.41
2022-09-26T07:37:44.561Z,14.80
2022-09-26T07:40:51.519Z,15.06
2022-09-26T07:44:46.217Z,15.05
2022-09-26T07:47:34.159Z,15.37
2022-09-26T07:50:37.107Z,15.74
2022-09-26T07:53:41.318Z,15.74
2022-09-26T07:56:45.309Z,15.31
2022-09-26T07:59:49.734Z,15.91
2022-09-26T08:02:52.753Z,16.09
2022-09-26T08:05:59.423Z,15.91
2022-09-26T08:09:02.242Z,15.69
2022-09-26T08:12:06.154Z,15.62
2022-09-26T08:15:09.191Z,15.57
2022-09-26T08:18:11.633Z,16.22
2022-09-26T08:21:14.285Z,16.11
2022-09-26T08:24:16.798Z,16.08
2022-09-26T08:27:20.725Z,16.45
2022-09-26T08:30:25.241Z,16.11
2022-09-26T08:33:27.857Z,15.95
2022-09-26T08:36:30.299Z,15.82
2022-09-26T08:39:33.714Z,16.23
2022-09-26T08:42:52.079Z,16.85
2022-09-26T08:46:21.509Z,16.74
2022-09-26T08:49:40.828Z,16.85
2022-09-26T08:52:48.001Z,16.53
2022-09-26T08:55:53.649Z,16.87
2022-09-26T08:59:00.677Z,16.87
2022-09-26T09:02:06.821Z,17.05
2022-09-26T09:05:16.383Z,16.60
2022-09-26T09:08:23.862Z,16.90
2022-09-26T09:11:42.981Z,16.92
2022-09-26T09:15:24.155Z,17.35
2022-09-26T09:18:33.011Z,17.44
2022-09-26T09:21:42.335Z,18.45
2022-09-26T09:24:52.381Z,18.60
2022-09-26T09:28:08.621Z,18.63
2022-09-26T09:31:15.721Z,17.66
2022-09-26T09:34:26.632Z,17.03
2022-09-26T09:37:40.210Z,16.73
2022-09-26T09:40:50.656Z,16.66
2022-09-26T09:43:56.717Z,16.43
2022-09-26T09:47:01.526Z,16.83
2022-09-26T09:50:13.077Z,17.68
2022-09-26T09:53:30.117Z,18.27
2022-09-26T09:56:43.553Z,17.83
2022-09-26T10:00:02.150Z,17.70
2022-09-26T10:03:17.881Z,16.90
2022-09-26T10:06:45.616Z,16.85
2022-09-26T10:09:44.705Z,16.42
2022-09-26T10:12:48.079Z,16.20
2022-09-26T10:15:58.073Z,16.12
2022-09-26T10:19:07.566Z,16.23
2022-09-26T10:22:17.172Z,16.19
2022-09-26T10:25:23.486Z,16.73
2022-09-26T10:28:30.281Z,17.77
2022-09-26T10:31:42.305Z,18.08
2022-09-26T10:35:05.069Z,19.03
2022-09-26T10:38:18.284Z,19.46
2022-09-26T10:41:23.763Z,18.89
2022-09-26T10:44:28.174Z,19.48
2022-09-26T10:47:31.354Z,19.02
2022-09-26T10:50:35.558Z,18.99
2022-09-26T10:53:41.307Z,18.63
2022-09-26T10:56:47.793Z,19.04
2022-09-26T10:59:51.601Z,18.70
2022-09-26T11:02:54.638Z,18.38
2022-09-26T11:05:59.141Z,18.30
2022-09-26T11:09:05.315Z,18.73
2022-09-26T11:12:23.947Z,19.34
2022-09-26T11:15:28.551Z,19.44
2022-09-26T11:18:39.599Z,19.57
2022-09-26T11:21:51.384Z,18.88
2022-09-26T11:25:00.214Z,19.06
2022-09-26T11:28:09.463Z,18.59
2022-09-26T11:31:21.574Z,18.15
2022-09-26T11:34:28.839Z,17.75
2022-09-26T11:37:55.314Z,17.76
2022-09-26T11:41:07.200Z,17.67
2022-09-26T11:44:34.432Z,17.91
2022-09-26T11:48:05.860Z,17.94
2022-09-26T11:51:17.217Z,17.98
2022-09-26T11:54:34.362Z,17.85
2022-09-26T11:57:45.461Z,17.48
2022-09-26T12:00:59.302Z,17.45
2022-09-26T12:04:16.519Z,17.58
2022-09-26T12:07:23.317Z,17.98
2022-09-26T12:10:39.430Z,18.35
2022-09-26T12:13:52.236Z,18.21
2022-09-26T12:17:02.633Z,18.47
2022-09-26T12:20:22.015Z,18.05
2022-09-26T12:23:33.546Z,17.70
2022-09-26T12:26:49.719Z,17.42
2022-09-26T12:29:59.324Z,17.39
2022-09-26T12:33:21.858Z,17.43
2022-09-26T12:36:40.238Z,17.45
2022-09-26T12:40:10.269Z,18.10
2022-09-26T12:43:56.378Z,18.42
2022-09-26T12:47:14.405Z,18.23
2022-09-26T12:50:25.316Z,17.76
2022-09-26T12:53:59.170Z,17.61
2022-09-26T12:57:08.126Z,17.52
2022-09-26T13:00:20.226Z,17.64
2022-09-26T13:04:01.342Z,17.99
2022-09-26T13:07:24.790Z,18.14
2022-09-26T13:10:39.058Z,17.83
2022-09-26T13:13:55.423Z,18.55
2022-09-26T13:17:10.070Z,18.57
2022-09-26T13:20:18.867Z,17.98
2022-09-26T13:23:28.647Z,17.72
2022-09-26T13:26:34.766Z,17.33
2022-09-26T13:29:41.462Z,17.37
2022-09-26T13:32:55.671Z,17.32
2022-09-26T13:36:01.361Z,17.16
2022-09-26T13:39:10.371Z,17.11
2022-09-26T13:42:19.729Z,17.08
2022-09-26T13:45:30.968Z,17.10
2022-09-26T13:48:46.422Z,16.98
2022-09-26T13:51:59.266Z,16.95
2022-09-26T13:55:04.474Z,17.00
2022-09-26T13:58:21.157Z,17.07
2022-09-26T14:01:28.103Z,17.12
2022-09-26T14:04:35.946Z,17.21
2022-09-26T14:08:10.338Z,17.37
2022-09-26T14:11:20.166Z,17.51
2022-09-26T14:14:39.636Z,17.53
2022-09-26T14:18:09.345Z,17.61
2022-09-26T14:21:35.257Z,17.57
2022-09-26T14:24:41.305Z,17.64
2022-09-26T14:27:44.315Z,17.50
2022-09-26T14:31:32.953Z,17.98
2022-09-26T14:34:42.240Z,18.19
2022-09-26T14:37:50.019Z,18.08
2022-09-26T14:40:56.153Z,17.51
2022-09-26T14:44:03.308Z,17.11
2022-09-26T14:47:13.776Z,16.82
2022-09-26T14:50:20.530Z,16.59
2022-09-26T14:53:27.981Z,16.50
2022-09-26T14:56:40.788Z,16.53
2022-09-26T14:59:43.888Z,16.85
2022-09-26T15:02:50.268Z,17.15
2022-09-26T15:05:53.225Z,17.46
2022-09-26T15:08:59.297Z,17.67
2022-09-26T15:12:05.024Z,17.50
2022-09-26T15:15:27.203Z,17.15
2022-09-26T15:18:35.666Z,16.83
2022-09-26T15:21:43.269Z,16.56
2022-09-26T15:24:47.467Z,16.40
2022-09-26T15:27:53.881Z,16.27
2022-09-26T15:31:28.962Z,16.20
2022-09-26T15:34:34.603Z,16.17
2022-09-26T15:37:37.341Z,16.11
2022-09-26T15:40:41.240Z,16.07
2022-09-26T15:43:42.897Z,15.96
2022-09-26T15:46:46.760Z,15.91
2022-09-26T15:50:02.721Z,15.80
2022-09-26T15:53:10.720Z,15.76
2022-09-26T15:56:17.959Z,15.66
2022-09-26T15:59:23.835Z,15.63
2022-09-26T16:02:32.512Z,15.56
2022-09-26T16:05:35.115Z,15.47
2022-09-26T16:08:41.958Z,15.41
2022-09-26T16:11:50.484Z,15.41
2022-09-26T16:14:58.395Z,15.31
2022-09-26T16:18:01.617Z,15.17
2022-09-26T16:21:19.884Z,15.05
2022-09-26T16:24:29.971Z,14.89
2022-09-26T16:27:35.297Z,14.69
2022-09-26T16:30:42.708Z,14.66
2022-09-26T16:33:50.950Z,14.48
2022-09-26T16:36:54.085Z,14.32
2022-09-26T16:39:59.348Z,14.36
2022-09-26T16:43:05.162Z,14.23
2022-09-26T16:46:10.091Z,14.18
2022-09-26T16:49:31.962Z,14.13
2022-09-26T16:52:35.387Z,14.03
2022-09-26T16:55:38.561Z,13.92
2022-09-26T16:58:48.700Z,13.92
2022-09-26T17:01:56.798Z,13.83
2022-09-26T17:04:59.333Z,13.70
2022-09-26T17:08:01.999Z,13.63
2022-09-26T17:11:05.824Z,13.60
2022-09-26T17:14:13.105Z,13.62
2022-09-26T17:17:21.692Z,13.58
2022-09-26T17:20:24.743Z,13.52
2022-09-26T17:23:40.000Z,13.47
2022-09-26T17:26:50.609Z,13.45
2022-09-26T17:29:59.600Z,13.45
2022-09-26T17:33:04.367Z,13.41
2022-09-26T17:36:10.714Z,13.31
2022-09-26T17:39:14.854Z,13.28
2022-09-26T17:42:17.408Z,13.21
2022-09-26T17:45:21.304Z,13.21
2022-09-26T17:48:27.727Z,13.14
2022-09-26T17:51:32.624Z,13.06
2022-09-26T17:54:42.517Z,13.07
2022-09-26T17:57:44.998Z,12.96
2022-09-26T18:00:51.251Z,12.96
2022-09-26T18:03:56.532Z,12.95
2022-09-26T18:07:04.361Z,12.90
2022-09-26T18:10:13.901Z,12.88
2022-09-26T18:13:20.258Z,12.86
2022-09-26T18:16:24.797Z,12.80
2022-09-26T18:19:27.403Z,12.78
2022-09-26T18:22:32.017Z,12.76
2022-09-26T18:25:37.271Z,12.81
2022-09-26T18:28:39.938Z,12.83
2022-09-26T18:31:46.705Z,12.77
2022-09-26T18:34:49.215Z,12.81
2022-09-26T18:37:52.059Z,12.91
2022-09-26T18:40:58.445Z,12.79
2022-09-26T18:44:02.787Z,12.78
2022-09-26T18:47:14.032Z,12.90
2022-09-26T18:50:22.741Z,12.86
2022-09-26T18:53:29.414Z,12.91
2022-09-26T18:56:49.571Z,12.97
2022-09-26T18:59:52.116Z,13.04
2022-09-26T19:02:57.195Z,13.07
2022-09-26T19:06:04.445Z,13.12
2022-09-26T19:09:12.815Z,13.10
2022-09-26T19:12:16.798Z,13.06
2022-09-26T19:15:20.959Z,13.04
2022-09-26T19:18:24.984Z,13.03
2022-09-26T19:21:33.408Z,13.10
2022-09-26T19:24:39.124Z,13.17
2022-09-26T19:27:46.136Z,13.14
2022-09-26T19:30:48.786Z,13.11
2022-09-26T19:33:53.133Z,13.21
2022-09-26T19:36:55.942Z,13.26
2022-09-26T19:39:58.732Z,13.26
2022-09-26T19:43:01.203Z,13.24
2022-09-26T19:46:04.115Z,13.26
2022-09-26T19:49:08.262Z,13.37
2022-09-26T19:52:15.572Z,13.44
2022-09-26T19:55:21.423Z,13.48
2022-09-26T19:58:25.773Z,13.44
2022-09-26T20:01:28.324Z,13.41
2022-09-26T20:04:32.274Z,13.38
2022-09-26T20:07:35.038Z,13.29
2022-09-26T20:10:37.615Z,13.23
2022-09-26T20:13:58.082Z,13.18
2022-09-26T20:17:02.709Z,13.14
2022-09-26T20:20:07.305Z,13.12
2022-09-26T20:23:18.415Z,13.09
2022-09-26T20:26:21.323Z,13.00
2022-09-26T20:29:23.861Z,13.04
2022-09-26T20:32:26.547Z,13.02
2022-09-26T20:35:35.281Z,12.98
2022-09-26T20:38:41.905Z,12.93
2022-09-26T20:41:44.902Z,12.90
2022-09-26T20:44:49.541Z,12.87
2022-09-26T20:47:52.074Z,12.85
2022-09-26T20:50:56.762Z,12.77
2022-09-26T20:54:00.696Z,12.78
2022-09-26T20:57:03.124Z,12.74
2022-09-26T21:00:06.675Z,12.68
2022-09-26T21:03:11.864Z,12.69
2022-09-26T21:06:19.521Z,12.72
2022-09-26T21:09:21.957Z,12.68
2022-09-26T21:12:24.401Z,12.72
2022-09-26T21:15:29.731Z,12.75
2022-09-26T21:18:32.320Z,12.71
2022-09-26T21:21:36.201Z,12.75
2022-09-26T21:24:40.596Z,12.73
2022-09-26T21:27:43.091Z,12.70
2022-09-26T21:30:45.598Z,12.76
2022-09-26T21:33:48.467Z,12.70
2022-09-26T21:36:54.237Z,12.76
2022-09-26T21:39:56.971Z,12.73
2022-09-26T21:43:06.881Z,12.72
2022-09-26T21:46:09.761Z,12.79
2022-09-26T21:49:12.445Z,12.79
2022-09-26T21:52:20.504Z,12.88
2022-09-26T21:55:27.420Z,12.72
2022-09-26T21:58:34.965Z,12.72
2022-09-26T22:01:37.553Z,12.73
2022-09-26T22:04:40.562Z,12.80
2022-09-26T22:07:44.372Z,12.81
2022-09-26T22:10:46.826Z,12.82
2022-09-26T22:13:49.257Z,12.85
2022-09-26T22:16:51.862Z,12.82
2022-09-26T22:19:54.562Z,12.76
2022-09-26T22:22:58.335Z,12.78
2022-09-26T22:26:01.443Z,12.79
2022-09-26T22:29:04.126Z,12.71
2022-09-26T22:32:06.555Z,12.60
2022-09-26T22:35:09.176Z,12.67
2022-09-26T22:38:12.953Z,12.69
2022-09-26T22:41:15.379Z,12.63
2022-09-26T22:44:17.923Z,12.63
2022-09-26T22:47:20.379Z,12.59
2022-09-26T22:50:22.858Z,12.52
2022-09-26T22:53:26.657Z,12.45
2022-09-26T22:56:29.117Z,12.41
2022-09-26T22:59:31.573Z,12.41
2022-09-26T23:02:34.111Z,12.44
2022-09-26T23:05:36.578Z,12.37
2022-09-26T23:08:40.522Z,12.33
2022-09-26T23:11:43.168Z,12.24
2022-09-26T23:14:45.599Z,12.33
2022-09-26T23:17:48.485Z,12.32
2022-09-26T23:20:50.922Z,12.34
2022-09-26T23:23:56.426Z,12.37
2022-09-26T23:26:59.139Z,12.32
2022-09-26T23:30:01.639Z,12.24
2022-09-26T23:33:04.289Z,12.28
2022-09-26T23:36:07.715Z,12.31
2022-09-26T23:39:11.542Z,12.24
2022-09-26T23:42:13.995Z,12.17
2022-09-26T23:45:16.683Z,12.12
2022-09-26T23:48:19.175Z,12.17
2022-09-26T23:51:21.907Z,12.16
2022-09-26T23:54:25.665Z,12.14
2022-09-26T23:57:28.129Z,12.10
